sensor_id;sensor_type;location;lat;lon;timestamp;temperature;humidity
81192;DHT22;70665;47.652;-2.730;2023-08-24T00:00:15;26.10;68.70
81192;DHT22;70665;47.652;-2.730;2023-08-24T00:02:41;26.20;68.70
81192;DHT22;70665;47.652;-2.730;2023-08-24T00:05:07;26.10;68.80
81192;DHT22;70665;47.652;-2.730;2023-08-24T00:07:32;26.10;68.80
81192;DHT22;70665;47.652;-2.730;2023-08-24T00:09:58;26.10;68.40
81192;DHT22;70665;47.652;-2.730;2023-08-24T00:12:24;26.20;68.70
81192;DHT22;70665;47.652;-2.730;2023-08-24T00:14:49;26.20;68.80
81192;DHT22;70665;47.652;-2.730;2023-08-24T00:17:15;26.20;68.30
81192;DHT22;70665;47.652;-2.730;2023-08-24T00:19:41;26.10;68.20
81192;DHT22;70665;47.652;-2.730;2023-08-24T00:22:06;26.10;68.50
81192;DHT22;70665;47.652;-2.730;2023-08-24T00:24:32;26.10;69.00
81192;DHT22;70665;47.652;-2.730;2023-08-24T00:26:58;26.10;68.70
81192;DHT22;70665;47.652;-2.730;2023-08-24T00:29:23;26.00;68.60
81192;DHT22;70665;47.652;-2.730;2023-08-24T00:31:49;26.10;68.90
81192;DHT22;70665;47.652;-2.730;2023-08-24T00:34:15;26.00;69.40
81192;DHT22;70665;47.652;-2.730;2023-08-24T00:36:40;26.00;69.00
81192;DHT22;70665;47.652;-2.730;2023-08-24T00:39:06;26.00;69.20
81192;DHT22;70665;47.652;-2.730;2023-08-24T00:41:32;25.90;69.50
81192;DHT22;70665;47.652;-2.730;2023-08-24T00:43:57;25.90;69.60
81192;DHT22;70665;47.652;-2.730;2023-08-24T00:46:23;25.80;69.90
81192;DHT22;70665;47.652;-2.730;2023-08-24T00:48:53;25.90;70.20
81192;DHT22;70665;47.652;-2.730;2023-08-24T00:51:22;25.80;69.80
81192;DHT22;70665;47.652;-2.730;2023-08-24T00:53:48;25.80;69.80
81192;DHT22;70665;47.652;-2.730;2023-08-24T00:56:14;25.80;70.40
81192;DHT22;70665;47.652;-2.730;2023-08-24T00:58:40;25.90;70.10
81192;DHT22;70665;47.652;-2.730;2023-08-24T01:01:06;25.90;69.80
81192;DHT22;70665;47.652;-2.730;2023-08-24T01:03:32;25.70;70.30
81192;DHT22;70665;47.652;-2.730;2023-08-24T01:05:57;25.70;70.40
81192;DHT22;70665;47.652;-2.730;2023-08-24T01:08:23;25.70;70.50
81192;DHT22;70665;47.652;-2.730;2023-08-24T01:11:02;25.60;74.30
81192;DHT22;70665;47.652;-2.730;2023-08-24T01:13:54;25.60;75.10
81192;DHT22;70665;47.652;-2.730;2023-08-24T01:16:28;25.50;72.80
81192;DHT22;70665;47.652;-2.730;2023-08-24T01:18:58;25.50;72.50
81192;DHT22;70665;47.652;-2.730;2023-08-24T01:21:26;25.50;71.70
81192;DHT22;70665;47.652;-2.730;2023-08-24T01:24:17;25.40;75.70
81192;DHT22;70665;47.652;-2.730;2023-08-24T01:26:44;25.50;71.00
81192;DHT22;70665;47.652;-2.730;2023-08-24T01:29:11;25.40;71.60
81192;DHT22;70665;47.652;-2.730;2023-08-24T01:31:37;25.40;71.30
81192;DHT22;70665;47.652;-2.730;2023-08-24T01:34:03;25.40;71.60
81192;DHT22;70665;47.652;-2.730;2023-08-24T01:36:29;25.40;71.90
81192;DHT22;70665;47.652;-2.730;2023-08-24T01:39:07;25.40;74.60
81192;DHT22;70665;47.652;-2.730;2023-08-24T01:41:37;25.30;71.90
81192;DHT22;70665;47.652;-2.730;2023-08-24T01:44:09;25.30;72.90
81192;DHT22;70665;47.652;-2.730;2023-08-24T01:46:38;25.30;72.10
81192;DHT22;70665;47.652;-2.730;2023-08-24T01:49:05;25.20;72.40
81192;DHT22;70665;47.652;-2.730;2023-08-24T01:51:31;25.20;72.50
81192;DHT22;70665;47.652;-2.730;2023-08-24T01:53:57;25.10;72.50
81192;DHT22;70665;47.652;-2.730;2023-08-24T01:56:23;25.10;73.00
81192;DHT22;70665;47.652;-2.730;2023-08-24T01:58:49;25.00;73.20
81192;DHT22;70665;47.652;-2.730;2023-08-24T02:01:15;25.00;73.10
81192;DHT22;70665;47.652;-2.730;2023-08-24T02:03:41;25.10;73.00
81192;DHT22;70665;47.652;-2.730;2023-08-24T02:06:07;25.10;73.10
81192;DHT22;70665;47.652;-2.730;2023-08-24T02:08:33;25.10;73.40
81192;DHT22;70665;47.652;-2.730;2023-08-24T02:10:58;25.00;72.70
81192;DHT22;70665;47.652;-2.730;2023-08-24T02:13:24;25.00;72.60
81192;DHT22;70665;47.652;-2.730;2023-08-24T02:15:49;25.00;73.10
81192;DHT22;70665;47.652;-2.730;2023-08-24T02:18:15;25.20;72.70
81192;DHT22;70665;47.652;-2.730;2023-08-24T02:20:41;25.00;73.60
81192;DHT22;70665;47.652;-2.730;2023-08-24T02:23:07;25.00;72.80
81192;DHT22;70665;47.652;-2.730;2023-08-24T02:25:32;25.10;74.30
81192;DHT22;70665;47.652;-2.730;2023-08-24T02:27:59;25.00;75.60
81192;DHT22;70665;47.652;-2.730;2023-08-24T02:30:25;25.00;76.10
81192;DHT22;70665;47.652;-2.730;2023-08-24T02:32:51;25.00;74.20
81192;DHT22;70665;47.652;-2.730;2023-08-24T02:35:17;24.90;74.10
81192;DHT22;70665;47.652;-2.730;2023-08-24T02:37:43;24.80;75.80
81192;DHT22;70665;47.652;-2.730;2023-08-24T02:40:09;24.90;75.30
81192;DHT22;70665;47.652;-2.730;2023-08-24T02:42:35;24.80;76.00
81192;DHT22;70665;47.652;-2.730;2023-08-24T02:45:01;24.80;76.00
81192;DHT22;70665;47.652;-2.730;2023-08-24T02:47:26;24.80;77.00
81192;DHT22;70665;47.652;-2.730;2023-08-24T02:49:52;24.80;76.50
81192;DHT22;70665;47.652;-2.730;2023-08-24T02:52:18;24.80;75.60
81192;DHT22;70665;47.652;-2.730;2023-08-24T02:54:43;24.70;75.20
81192;DHT22;70665;47.652;-2.730;2023-08-24T02:57:09;24.70;75.00
81192;DHT22;70665;47.652;-2.730;2023-08-24T02:59:35;24.70;76.90
81192;DHT22;70665;47.652;-2.730;2023-08-24T03:02:00;24.60;76.90
81192;DHT22;70665;47.652;-2.730;2023-08-24T03:04:26;24.60;77.00
81192;DHT22;70665;47.652;-2.730;2023-08-24T03:06:52;24.50;76.90
81192;DHT22;70665;47.652;-2.730;2023-08-24T03:09:18;24.50;77.80
81192;DHT22;70665;47.652;-2.730;2023-08-24T03:11:43;24.50;75.30
81192;DHT22;70665;47.652;-2.730;2023-08-24T03:14:09;24.40;74.90
81192;DHT22;70665;47.652;-2.730;2023-08-24T03:16:36;24.40;76.20
81192;DHT22;70665;47.652;-2.730;2023-08-24T03:19:02;24.20;77.70
81192;DHT22;70665;47.652;-2.730;2023-08-24T03:21:28;24.20;76.80
81192;DHT22;70665;47.652;-2.730;2023-08-24T03:23:53;24.20;75.80
81192;DHT22;70665;47.652;-2.730;2023-08-24T03:26:20;24.10;75.60
81192;DHT22;70665;47.652;-2.730;2023-08-24T03:28:48;24.10;75.20
81192;DHT22;70665;47.652;-2.730;2023-08-24T03:31:14;24.10;76.20
81192;DHT22;70665;47.652;-2.730;2023-08-24T03:33:39;24.10;75.60
81192;DHT22;70665;47.652;-2.730;2023-08-24T03:36:05;24.00;76.20
81192;DHT22;70665;47.652;-2.730;2023-08-24T03:38:31;24.00;77.10
81192;DHT22;70665;47.652;-2.730;2023-08-24T03:41:03;24.00;77.80
81192;DHT22;70665;47.652;-2.730;2023-08-24T03:43:33;24.00;77.20
81192;DHT22;70665;47.652;-2.730;2023-08-24T03:45:59;24.00;76.60
81192;DHT22;70665;47.652;-2.730;2023-08-24T03:48:26;24.00;76.60
81192;DHT22;70665;47.652;-2.730;2023-08-24T03:50:54;24.00;77.80
81192;DHT22;70665;47.652;-2.730;2023-08-24T03:53:21;24.00;77.00
81192;DHT22;70665;47.652;-2.730;2023-08-24T03:55:51;24.00;77.00
81192;DHT22;70665;47.652;-2.730;2023-08-24T03:58:16;23.90;76.30
81192;DHT22;70665;47.652;-2.730;2023-08-24T04:00:43;23.90;77.80
81192;DHT22;70665;47.652;-2.730;2023-08-24T04:03:09;23.90;76.00
81192;DHT22;70665;47.652;-2.730;2023-08-24T04:05:35;24.00;76.20
81192;DHT22;70665;47.652;-2.730;2023-08-24T04:08:00;23.90;76.70
81192;DHT22;70665;47.652;-2.730;2023-08-24T04:10:27;23.90;75.70
81192;DHT22;70665;47.652;-2.730;2023-08-24T04:12:53;24.00;76.40
81192;DHT22;70665;47.652;-2.730;2023-08-24T04:15:18;24.00;77.00
81192;DHT22;70665;47.652;-2.730;2023-08-24T04:17:44;24.00;77.20
81192;DHT22;70665;47.652;-2.730;2023-08-24T04:20:10;24.10;75.70
81192;DHT22;70665;47.652;-2.730;2023-08-24T04:22:36;24.10;76.50
81192;DHT22;70665;47.652;-2.730;2023-08-24T04:25:02;24.10;75.60
81192;DHT22;70665;47.652;-2.730;2023-08-24T04:27:28;24.10;75.10
81192;DHT22;70665;47.652;-2.730;2023-08-24T04:29:54;24.10;77.00
81192;DHT22;70665;47.652;-2.730;2023-08-24T04:32:19;24.00;77.00
81192;DHT22;70665;47.652;-2.730;2023-08-24T04:34:45;24.00;76.60
81192;DHT22;70665;47.652;-2.730;2023-08-24T04:37:10;24.00;77.00
81192;DHT22;70665;47.652;-2.730;2023-08-24T04:39:36;23.90;76.60
81192;DHT22;70665;47.652;-2.730;2023-08-24T04:42:02;23.90;76.40
81192;DHT22;70665;47.652;-2.730;2023-08-24T04:44:28;24.00;73.90
81192;DHT22;70665;47.652;-2.730;2023-08-24T04:46:54;23.90;76.30
81192;DHT22;70665;47.652;-2.730;2023-08-24T04:49:19;24.00;74.10
81192;DHT22;70665;47.652;-2.730;2023-08-24T04:51:45;24.00;74.20
81192;DHT22;70665;47.652;-2.730;2023-08-24T04:54:11;24.00;73.40
81192;DHT22;70665;47.652;-2.730;2023-08-24T04:56:36;24.00;72.70
81192;DHT22;70665;47.652;-2.730;2023-08-24T04:59:02;24.10;72.90
81192;DHT22;70665;47.652;-2.730;2023-08-24T05:01:28;24.10;73.00
81192;DHT22;70665;47.652;-2.730;2023-08-24T05:03:56;24.10;73.60
81192;DHT22;70665;47.652;-2.730;2023-08-24T05:06:22;24.10;73.00
81192;DHT22;70665;47.652;-2.730;2023-08-24T05:08:48;24.30;73.40
81192;DHT22;70665;47.652;-2.730;2023-08-24T05:11:18;24.20;73.50
81192;DHT22;70665;47.652;-2.730;2023-08-24T05:13:44;24.20;73.40
81192;DHT22;70665;47.652;-2.730;2023-08-24T05:16:11;24.20;73.40
81192;DHT22;70665;47.652;-2.730;2023-08-24T05:18:37;24.20;72.60
81192;DHT22;70665;47.652;-2.730;2023-08-24T05:21:03;24.20;73.80
81192;DHT22;70665;47.652;-2.730;2023-08-24T05:23:29;24.20;73.00
81192;DHT22;70665;47.652;-2.730;2023-08-24T05:25:57;24.20;75.70
81192;DHT22;70665;47.652;-2.730;2023-08-24T05:28:24;24.20;73.20
81192;DHT22;70665;47.652;-2.730;2023-08-24T05:30:51;24.30;74.10
81192;DHT22;70665;47.652;-2.730;2023-08-24T05:33:17;24.30;73.10
81192;DHT22;70665;47.652;-2.730;2023-08-24T05:35:43;24.40;72.90
81192;DHT22;70665;47.652;-2.730;2023-08-24T05:38:09;24.40;72.60
81192;DHT22;70665;47.652;-2.730;2023-08-24T05:40:34;24.40;73.20
81192;DHT22;70665;47.652;-2.730;2023-08-24T05:43:00;24.50;73.50
81192;DHT22;70665;47.652;-2.730;2023-08-24T05:45:26;24.30;74.50
81192;DHT22;70665;47.652;-2.730;2023-08-24T05:47:51;24.20;75.80
81192;DHT22;70665;47.652;-2.730;2023-08-24T05:50:17;24.30;75.90
81192;DHT22;70665;47.652;-2.730;2023-08-24T05:52:42;24.30;74.30
81192;DHT22;70665;47.652;-2.730;2023-08-24T05:55:08;24.30;74.10
81192;DHT22;70665;47.652;-2.730;2023-08-24T05:57:34;24.30;74.20
81192;DHT22;70665;47.652;-2.730;2023-08-24T05:59:59;24.30;76.60
81192;DHT22;70665;47.652;-2.730;2023-08-24T06:02:25;24.20;74.40
81192;DHT22;70665;47.652;-2.730;2023-08-24T06:04:50;24.20;73.70
81192;DHT22;70665;47.652;-2.730;2023-08-24T06:07:17;24.30;73.80
81192;DHT22;70665;47.652;-2.730;2023-08-24T06:09:42;24.30;74.60
81192;DHT22;70665;47.652;-2.730;2023-08-24T06:12:08;24.40;75.90
81192;DHT22;70665;47.652;-2.730;2023-08-24T06:14:34;24.30;74.50
81192;DHT22;70665;47.652;-2.730;2023-08-24T06:16:59;24.30;75.80
81192;DHT22;70665;47.652;-2.730;2023-08-24T06:19:25;24.30;74.50
81192;DHT22;70665;47.652;-2.730;2023-08-24T06:21:51;24.30;75.20
81192;DHT22;70665;47.652;-2.730;2023-08-24T06:24:16;24.30;74.90
81192;DHT22;70665;47.652;-2.730;2023-08-24T06:26:42;24.40;75.40
81192;DHT22;70665;47.652;-2.730;2023-08-24T06:29:08;24.30;75.50
81192;DHT22;70665;47.652;-2.730;2023-08-24T06:31:33;24.40;76.00
81192;DHT22;70665;47.652;-2.730;2023-08-24T06:34:00;24.50;74.70
81192;DHT22;70665;47.652;-2.730;2023-08-24T06:36:25;24.70;73.60
81192;DHT22;70665;47.652;-2.730;2023-08-24T06:38:51;24.70;75.40
81192;DHT22;70665;47.652;-2.730;2023-08-24T06:41:17;24.60;73.70
81192;DHT22;70665;47.652;-2.730;2023-08-24T06:43:42;24.60;74.10
81192;DHT22;70665;47.652;-2.730;2023-08-24T06:46:08;24.70;74.20
81192;DHT22;70665;47.652;-2.730;2023-08-24T06:48:34;24.70;76.00
81192;DHT22;70665;47.652;-2.730;2023-08-24T06:51:00;24.80;74.10
81192;DHT22;70665;47.652;-2.730;2023-08-24T06:53:26;24.80;75.50
81192;DHT22;70665;47.652;-2.730;2023-08-24T06:55:58;24.90;76.80
81192;DHT22;70665;47.652;-2.730;2023-08-24T06:58:24;24.80;74.30
81192;DHT22;70665;47.652;-2.730;2023-08-24T07:00:49;24.90;74.70
81192;DHT22;70665;47.652;-2.730;2023-08-24T07:03:18;24.90;75.50
81192;DHT22;70665;47.652;-2.730;2023-08-24T07:05:45;24.90;73.80
81192;DHT22;70665;47.652;-2.730;2023-08-24T07:08:11;25.00;73.60
81192;DHT22;70665;47.652;-2.730;2023-08-24T07:10:36;24.90;73.70
81192;DHT22;70665;47.652;-2.730;2023-08-24T07:13:02;24.90;73.90
81192;DHT22;70665;47.652;-2.730;2023-08-24T07:15:28;24.80;75.50
81192;DHT22;70665;47.652;-2.730;2023-08-24T07:17:53;24.80;74.20
81192;DHT22;70665;47.652;-2.730;2023-08-24T07:20:19;24.80;75.10
81192;DHT22;70665;47.652;-2.730;2023-08-24T07:22:45;24.90;75.80
81192;DHT22;70665;47.652;-2.730;2023-08-24T07:25:11;24.90;74.60
81192;DHT22;70665;47.652;-2.730;2023-08-24T07:27:37;24.90;74.20
81192;DHT22;70665;47.652;-2.730;2023-08-24T07:30:03;24.90;74.10
81192;DHT22;70665;47.652;-2.730;2023-08-24T07:32:33;24.80;75.40
81192;DHT22;70665;47.652;-2.730;2023-08-24T07:34:58;24.70;74.30
81192;DHT22;70665;47.652;-2.730;2023-08-24T07:37:25;24.70;75.10
81192;DHT22;70665;47.652;-2.730;2023-08-24T07:39:51;24.70;75.40
81192;DHT22;70665;47.652;-2.730;2023-08-24T07:42:20;24.70;76.80
81192;DHT22;70665;47.652;-2.730;2023-08-24T07:44:45;24.80;76.60
81192;DHT22;70665;47.652;-2.730;2023-08-24T07:47:11;24.90;75.50
81192;DHT22;70665;47.652;-2.730;2023-08-24T07:49:37;24.80;75.50
81192;DHT22;70665;47.652;-2.730;2023-08-24T07:52:05;24.80;75.30
81192;DHT22;70665;47.652;-2.730;2023-08-24T07:54:31;24.80;75.30
81192;DHT22;70665;47.652;-2.730;2023-08-24T07:56:56;24.80;75.30
81192;DHT22;70665;47.652;-2.730;2023-08-24T07:59:22;24.80;75.60
81192;DHT22;70665;47.652;-2.730;2023-08-24T08:01:48;24.80;75.80
81192;DHT22;70665;47.652;-2.730;2023-08-24T08:04:13;24.70;75.90
81192;DHT22;70665;47.652;-2.730;2023-08-24T08:06:39;24.70;75.60
81192;DHT22;70665;47.652;-2.730;2023-08-24T08:09:05;24.80;75.70
81192;DHT22;70665;47.652;-2.730;2023-08-24T08:11:31;24.80;75.70
81192;DHT22;70665;47.652;-2.730;2023-08-24T08:13:58;24.80;75.80
81192;DHT22;70665;47.652;-2.730;2023-08-24T08:16:24;24.90;75.20
81192;DHT22;70665;47.652;-2.730;2023-08-24T08:18:51;24.90;75.00
81192;DHT22;70665;47.652;-2.730;2023-08-24T08:21:17;24.90;75.40
81192;DHT22;70665;47.652;-2.730;2023-08-24T08:23:44;24.90;75.90
81192;DHT22;70665;47.652;-2.730;2023-08-24T08:26:13;24.90;75.90
81192;DHT22;70665;47.652;-2.730;2023-08-24T08:28:40;24.90;75.30
81192;DHT22;70665;47.652;-2.730;2023-08-24T08:31:06;24.90;75.40
81192;DHT22;70665;47.652;-2.730;2023-08-24T08:33:32;24.80;75.70
81192;DHT22;70665;47.652;-2.730;2023-08-24T08:35:58;24.90;77.80
81192;DHT22;70665;47.652;-2.730;2023-08-24T08:38:25;24.90;75.60
81192;DHT22;70665;47.652;-2.730;2023-08-24T08:40:55;24.90;76.70
81192;DHT22;70665;47.652;-2.730;2023-08-24T08:43:22;24.80;76.00
81192;DHT22;70665;47.652;-2.730;2023-08-24T08:45:52;24.80;77.40
81192;DHT22;70665;47.652;-2.730;2023-08-24T08:48:22;24.80;76.30
81192;DHT22;70665;47.652;-2.730;2023-08-24T08:50:52;24.80;78.80
81192;DHT22;70665;47.652;-2.730;2023-08-24T08:53:28;24.80;77.30
81192;DHT22;70665;47.652;-2.730;2023-08-24T08:55:55;24.80;76.30
81192;DHT22;70665;47.652;-2.730;2023-08-24T08:58:23;24.80;77.10
81192;DHT22;70665;47.652;-2.730;2023-08-24T09:00:51;24.70;76.70
81192;DHT22;70665;47.652;-2.730;2023-08-24T09:03:18;24.80;76.60
81192;DHT22;70665;47.652;-2.730;2023-08-24T09:05:47;24.70;76.60
81192;DHT22;70665;47.652;-2.730;2023-08-24T09:08:16;24.80;76.70
81192;DHT22;70665;47.652;-2.730;2023-08-24T09:10:42;24.80;76.50
81192;DHT22;70665;47.652;-2.730;2023-08-24T09:13:08;24.90;76.20
81192;DHT22;70665;47.652;-2.730;2023-08-24T09:15:36;25.00;76.20
81192;DHT22;70665;47.652;-2.730;2023-08-24T09:18:02;25.00;74.90
81192;DHT22;70665;47.652;-2.730;2023-08-24T09:20:29;25.10;75.40
81192;DHT22;70665;47.652;-2.730;2023-08-24T09:22:55;25.10;75.60
81192;DHT22;70665;47.652;-2.730;2023-08-24T09:25:23;25.20;75.20
81192;DHT22;70665;47.652;-2.730;2023-08-24T09:28:02;25.30;77.20
81192;DHT22;70665;47.652;-2.730;2023-08-24T09:30:34;25.50;74.10
81192;DHT22;70665;47.652;-2.730;2023-08-24T09:33:04;25.50;75.30
81192;DHT22;70665;47.652;-2.730;2023-08-24T09:35:34;25.50;75.50
81192;DHT22;70665;47.652;-2.730;2023-08-24T09:38:20;25.60;76.40
81192;DHT22;70665;47.652;-2.730;2023-08-24T09:40:49;25.60;73.90
81192;DHT22;70665;47.652;-2.730;2023-08-24T09:43:16;25.70;73.30
81192;DHT22;70665;47.652;-2.730;2023-08-24T09:45:57;25.80;74.10
81192;DHT22;70665;47.652;-2.730;2023-08-24T09:48:24;26.00;72.70
81192;DHT22;70665;47.652;-2.730;2023-08-24T09:50:51;26.00;72.80
81192;DHT22;70665;47.652;-2.730;2023-08-24T09:53:21;26.00;72.50
81192;DHT22;70665;47.652;-2.730;2023-08-24T09:56:00;26.10;73.60
81192;DHT22;70665;47.652;-2.730;2023-08-24T09:58:27;26.20;72.20
81192;DHT22;70665;47.652;-2.730;2023-08-24T10:00:54;26.20;71.90
81192;DHT22;70665;47.652;-2.730;2023-08-24T10:03:21;26.40;71.80
81192;DHT22;70665;47.652;-2.730;2023-08-24T10:05:55;26.50;72.30
81192;DHT22;70665;47.652;-2.730;2023-08-24T10:08:28;26.70;71.80
81192;DHT22;70665;47.652;-2.730;2023-08-24T10:10:56;26.80;71.50
81192;DHT22;70665;47.652;-2.730;2023-08-24T10:13:34;26.90;71.90
81192;DHT22;70665;47.652;-2.730;2023-08-24T10:16:03;27.00;71.10
81192;DHT22;70665;47.652;-2.730;2023-08-24T10:18:30;27.00;70.90
81192;DHT22;70665;47.652;-2.730;2023-08-24T10:20:56;27.00;71.60
81192;DHT22;70665;47.652;-2.730;2023-08-24T10:23:22;27.00;70.40
81192;DHT22;70665;47.652;-2.730;2023-08-24T10:25:51;27.20;70.00
81192;DHT22;70665;47.652;-2.730;2023-08-24T10:28:18;27.30;69.40
81192;DHT22;70665;47.652;-2.730;2023-08-24T10:30:46;27.50;69.20
81192;DHT22;70665;47.652;-2.730;2023-08-24T10:33:14;27.50;69.10
81192;DHT22;70665;47.652;-2.730;2023-08-24T10:35:41;27.50;69.10
81192;DHT22;70665;47.652;-2.730;2023-08-24T10:38:07;27.60;68.70
81192;DHT22;70665;47.652;-2.730;2023-08-24T10:40:35;27.60;68.50
81192;DHT22;70665;47.652;-2.730;2023-08-24T10:43:04;27.70;68.90
81192;DHT22;70665;47.652;-2.730;2023-08-24T10:45:59;27.80;67.60
81192;DHT22;70665;47.652;-2.730;2023-08-24T10:51:23;27.60;68.10
81192;DHT22;70665;47.652;-2.730;2023-08-24T10:56:18;27.60;66.40
81192;DHT22;70665;47.652;-2.730;2023-08-24T10:58:45;27.70;67.30
81192;DHT22;70665;47.652;-2.730;2023-08-24T11:01:18;27.70;67.50
81192;DHT22;70665;47.652;-2.730;2023-08-24T11:03:51;27.70;67.90
81192;DHT22;70665;47.652;-2.730;2023-08-24T11:06:21;27.80;67.70
81192;DHT22;70665;47.652;-2.730;2023-08-24T11:08:48;28.00;67.60
81192;DHT22;70665;47.652;-2.730;2023-08-24T11:11:23;28.10;65.50
81192;DHT22;70665;47.652;-2.730;2023-08-24T11:16:42;28.30;65.40
81192;DHT22;70665;47.652;-2.730;2023-08-24T11:19:09;28.50;65.50
81192;DHT22;70665;47.652;-2.730;2023-08-24T11:21:35;28.70;65.40
81192;DHT22;70665;47.652;-2.730;2023-08-24T11:24:02;29.00;64.60
81192;DHT22;70665;47.652;-2.730;2023-08-24T11:26:29;29.20;62.60
81192;DHT22;70665;47.652;-2.730;2023-08-24T11:28:55;29.40;63.70
81192;DHT22;70665;47.652;-2.730;2023-08-24T11:31:23;29.60;63.40
81192;DHT22;70665;47.652;-2.730;2023-08-24T11:33:54;30.00;62.40
81192;DHT22;70665;47.652;-2.730;2023-08-24T11:36:23;30.20;62.20
81192;DHT22;70665;47.652;-2.730;2023-08-24T11:38:52;30.30;58.80
81192;DHT22;70665;47.652;-2.730;2023-08-24T11:41:19;30.30;60.00
81192;DHT22;70665;47.652;-2.730;2023-08-24T11:43:47;30.40;61.60
81192;DHT22;70665;47.652;-2.730;2023-08-24T11:46:15;30.60;59.90
81192;DHT22;70665;47.652;-2.730;2023-08-24T11:48:42;30.60;58.80
81192;DHT22;70665;47.652;-2.730;2023-08-24T11:51:12;30.60;57.80
81192;DHT22;70665;47.652;-2.730;2023-08-24T11:53:45;30.40;57.20
81192;DHT22;70665;47.652;-2.730;2023-08-24T11:56:14;30.10;58.30
81192;DHT22;70665;47.652;-2.730;2023-08-24T11:59:01;30.20;57.60
81192;DHT22;70665;47.652;-2.730;2023-08-24T12:01:26;30.50;58.90
81192;DHT22;70665;47.652;-2.730;2023-08-24T12:03:52;31.00;58.80
81192;DHT22;70665;47.652;-2.730;2023-08-24T12:06:18;31.20;58.80
81192;DHT22;70665;47.652;-2.730;2023-08-24T12:08:47;31.30;55.00
81192;DHT22;70665;47.652;-2.730;2023-08-24T12:11:14;31.40;56.30
81192;DHT22;70665;47.652;-2.730;2023-08-24T12:13:44;31.50;54.10
81192;DHT22;70665;47.652;-2.730;2023-08-24T12:16:11;31.40;54.70
81192;DHT22;70665;47.652;-2.730;2023-08-24T12:18:50;31.50;54.60
81192;DHT22;70665;47.652;-2.730;2023-08-24T12:21:16;31.40;53.90
81192;DHT22;70665;47.652;-2.730;2023-08-24T12:23:42;31.80;53.10
81192;DHT22;70665;47.652;-2.730;2023-08-24T12:26:08;31.80;53.20
81192;DHT22;70665;47.652;-2.730;2023-08-24T12:28:34;31.80;53.70
81192;DHT22;70665;47.652;-2.730;2023-08-24T12:31:01;32.00;50.10
81192;DHT22;70665;47.652;-2.730;2023-08-24T12:33:30;31.70;50.00
81192;DHT22;70665;47.652;-2.730;2023-08-24T12:35:59;31.80;51.50
81192;DHT22;70665;47.652;-2.730;2023-08-24T12:38:26;31.70;50.40
81192;DHT22;70665;47.652;-2.730;2023-08-24T12:40:52;31.70;50.20
81192;DHT22;70665;47.652;-2.730;2023-08-24T12:43:18;31.60;49.70
81192;DHT22;70665;47.652;-2.730;2023-08-24T12:45:44;31.50;51.50
81192;DHT22;70665;47.652;-2.730;2023-08-24T12:48:10;31.30;51.00
81192;DHT22;70665;47.652;-2.730;2023-08-24T12:50:38;31.60;51.50
81192;DHT22;70665;47.652;-2.730;2023-08-24T12:53:04;31.60;51.70
81192;DHT22;70665;47.652;-2.730;2023-08-24T12:55:32;31.60;50.70
81192;DHT22;70665;47.652;-2.730;2023-08-24T12:57:58;31.50;51.40
81192;DHT22;70665;47.652;-2.730;2023-08-24T13:00:24;31.80;50.70
81192;DHT22;70665;47.652;-2.730;2023-08-24T13:02:50;31.70;50.90
81192;DHT22;70665;47.652;-2.730;2023-08-24T13:05:16;31.90;52.70
81192;DHT22;70665;47.652;-2.730;2023-08-24T13:07:42;31.80;51.20
81192;DHT22;70665;47.652;-2.730;2023-08-24T13:10:08;32.10;51.60
81192;DHT22;70665;47.652;-2.730;2023-08-24T13:12:34;32.30;50.90
81192;DHT22;70665;47.652;-2.730;2023-08-24T13:15:00;32.20;50.20
81192;DHT22;70665;47.652;-2.730;2023-08-24T13:17:27;32.40;50.50
81192;DHT22;70665;47.652;-2.730;2023-08-24T13:19:52;32.70;49.40
81192;DHT22;70665;47.652;-2.730;2023-08-24T13:22:18;33.10;48.30
81192;DHT22;70665;47.652;-2.730;2023-08-24T13:24:44;33.70;50.10
81192;DHT22;70665;47.652;-2.730;2023-08-24T13:27:10;33.70;50.00
81192;DHT22;70665;47.652;-2.730;2023-08-24T13:29:36;33.60;49.60
81192;DHT22;70665;47.652;-2.730;2023-08-24T13:32:03;33.70;50.30
81192;DHT22;70665;47.652;-2.730;2023-08-24T13:34:29;34.30;47.60
81192;DHT22;70665;47.652;-2.730;2023-08-24T13:36:56;34.30;46.70
81192;DHT22;70665;47.652;-2.730;2023-08-24T13:39:22;34.80;48.00
81192;DHT22;70665;47.652;-2.730;2023-08-24T13:41:48;34.90;46.90
81192;DHT22;70665;47.652;-2.730;2023-08-24T13:44:14;35.10;45.50
81192;DHT22;70665;47.652;-2.730;2023-08-24T13:46:39;35.40;48.50
81192;DHT22;70665;47.652;-2.730;2023-08-24T13:49:05;35.00;46.30
81192;DHT22;70665;47.652;-2.730;2023-08-24T13:51:30;35.30;47.10
81192;DHT22;70665;47.652;-2.730;2023-08-24T13:53:56;35.50;47.90
81192;DHT22;70665;47.652;-2.730;2023-08-24T13:56:22;35.10;46.70
81192;DHT22;70665;47.652;-2.730;2023-08-24T13:58:47;35.20;46.30
81192;DHT22;70665;47.652;-2.730;2023-08-24T14:01:13;35.10;46.30
81192;DHT22;70665;47.652;-2.730;2023-08-24T14:03:39;35.10;45.10
81192;DHT22;70665;47.652;-2.730;2023-08-24T14:06:08;35.30;46.00
81192;DHT22;70665;47.652;-2.730;2023-08-24T14:08:34;35.40;44.90
81192;DHT22;70665;47.652;-2.730;2023-08-24T14:11:00;35.70;44.60
81192;DHT22;70665;47.652;-2.730;2023-08-24T14:13:25;35.30;46.00
81192;DHT22;70665;47.652;-2.730;2023-08-24T14:15:51;35.70;45.60
81192;DHT22;70665;47.652;-2.730;2023-08-24T14:18:18;36.00;47.20
81192;DHT22;70665;47.652;-2.730;2023-08-24T14:20:43;35.70;45.80
81192;DHT22;70665;47.652;-2.730;2023-08-24T14:23:09;36.00;46.50
81192;DHT22;70665;47.652;-2.730;2023-08-24T14:25:35;35.70;46.10
81192;DHT22;70665;47.652;-2.730;2023-08-24T14:28:00;35.70;45.30
81192;DHT22;70665;47.652;-2.730;2023-08-24T14:30:26;35.50;47.40
81192;DHT22;70665;47.652;-2.730;2023-08-24T14:32:52;35.30;48.20
81192;DHT22;70665;47.652;-2.730;2023-08-24T14:35:17;35.00;47.90
81192;DHT22;70665;47.652;-2.730;2023-08-24T14:37:43;35.20;47.20
81192;DHT22;70665;47.652;-2.730;2023-08-24T14:40:09;35.10;46.30
81192;DHT22;70665;47.652;-2.730;2023-08-24T14:42:35;35.50;46.20
81192;DHT22;70665;47.652;-2.730;2023-08-24T14:45:01;35.90;48.80
81192;DHT22;70665;47.652;-2.730;2023-08-24T14:47:27;36.10;47.30
81192;DHT22;70665;47.652;-2.730;2023-08-24T14:49:52;36.10;47.90
81192;DHT22;70665;47.652;-2.730;2023-08-24T14:52:18;36.20;45.00
81192;DHT22;70665;47.652;-2.730;2023-08-24T14:54:44;36.00;45.40
81192;DHT22;70665;47.652;-2.730;2023-08-24T14:57:10;36.40;46.30
81192;DHT22;70665;47.652;-2.730;2023-08-24T14:59:36;36.30;47.30
81192;DHT22;70665;47.652;-2.730;2023-08-24T15:02:01;36.00;44.10
81192;DHT22;70665;47.652;-2.730;2023-08-24T15:04:27;36.50;47.10
81192;DHT22;70665;47.652;-2.730;2023-08-24T15:06:53;36.90;47.00
81192;DHT22;70665;47.652;-2.730;2023-08-24T15:09:18;36.50;44.40
81192;DHT22;70665;47.652;-2.730;2023-08-24T15:11:44;36.90;46.80
81192;DHT22;70665;47.652;-2.730;2023-08-24T15:14:10;37.20;47.30
81192;DHT22;70665;47.652;-2.730;2023-08-24T15:16:36;36.90;45.10
81192;DHT22;70665;47.652;-2.730;2023-08-24T15:19:02;36.60;48.20
81192;DHT22;70665;47.652;-2.730;2023-08-24T15:21:27;36.70;47.90